Calverton Park, Missouri
Current Conditions -  °F | °C
As of 11:51 AM on Friday 28 Nov 2014 (Local Time) from KSTL Reporting Station
Few Clouds Few Clouds  
Wind Chill: 39°   Ceiling: Unl
Heat Index: 46°   Visibility: 10mi
Dew Point: 32°   Wind: 16mph
Humidity: 58%   Direction: 160°SSE
Pressure: 30.07"   Gusts: 22mph
Location:  38.7497°N, 90.2989°W
Report Text: KSTL 281751Z 16014G19KT 10SM FEW250 08/00 A3007 RMK AO2 SLP190 T00780000 10078 21028 58041
Loading
Personal Weather Stations






























Interactive Weather Map New forecast layout! Learn more

10-Day Weather Forecast

Advertisements
Track Severe Weather on mobile